sensor_id;sensor_type;location;lat;lon;timestamp;pressure;altitude;pressure_sealevel;temperature;humidity
11314;BME280;5712;48.858;9.206;2023-03-15T00:01:33;97757.97;;;2.10;100.00
11314;BME280;5712;48.858;9.206;2023-03-15T00:03:59;97782.31;;;2.09;100.00
11314;BME280;5712;48.858;9.206;2023-03-15T00:06:26;97780.50;;;2.11;100.00
11314;BME280;5712;48.858;9.206;2023-03-15T00:08:54;97782.19;;;2.12;100.00
11314;BME280;5712;48.858;9.206;2023-03-15T00:11:20;97791.72;;;2.13;100.00
11314;BME280;5712;48.858;9.206;2023-03-15T00:13:47;97798.75;;;2.11;100.00
11314;BME280;5712;48.858;9.206;2023-03-15T00:16:13;97808.50;;;2.06;100.00
11314;BME280;5712;48.858;9.206;2023-03-15T00:18:42;97813.84;;;2.03;100.00
11314;BME280;5712;48.858;9.206;2023-03-15T00:21:09;97816.34;;;2.06;100.00
11314;BME280;5712;48.858;9.206;2023-03-15T00:23:35;97818.94;;;2.06;100.00
11314;BME280;5712;48.858;9.206;2023-03-15T00:26:03;97828.75;;;2.00;100.00
11314;BME280;5712;48.858;9.206;2023-03-15T00:28:30;97835.53;;;2.04;100.00
11314;BME280;5712;48.858;9.206;2023-03-15T00:31:04;97839.78;;;2.06;100.00
11314;BME280;5712;48.858;9.206;2023-03-15T00:33:31;97850.22;;;2.06;100.00
11314;BME280;5712;48.858;9.206;2023-03-15T00:36:02;97851.78;;;2.10;100.00
11314;BME280;5712;48.858;9.206;2023-03-15T00:38:29;97857.25;;;2.04;100.00
11314;BME280;5712;48.858;9.206;2023-03-15T00:40:56;97854.81;;;2.00;100.00
11314;BME280;5712;48.858;9.206;2023-03-15T00:43:24;97853.16;;;1.97;100.00
11314;BME280;5712;48.858;9.206;2023-03-15T00:45:50;97852.28;;;1.98;100.00
11314;BME280;5712;48.858;9.206;2023-03-15T00:48:16;97856.41;;;2.04;100.00
11314;BME280;5712;48.858;9.206;2023-03-15T00:53:19;97855.53;;;2.03;100.00
11314;BME280;5712;48.858;9.206;2023-03-15T00:55:46;97860.88;;;2.00;100.00
11314;BME280;5712;48.858;9.206;2023-03-15T00:58:13;97866.09;;;2.00;100.00
11314;BME280;5712;48.858;9.206;2023-03-15T01:00:40;97876.63;;;1.97;100.00
11314;BME280;5712;48.858;9.206;2023-03-15T01:03:07;97885.50;;;1.93;100.00
11314;BME280;5712;48.858;9.206;2023-03-15T01:05:35;97883.56;;;1.98;100.00
11314;BME280;5712;48.858;9.206;2023-03-15T01:08:01;97887.19;;;1.94;100.00
11314;BME280;5712;48.858;9.206;2023-03-15T01:10:28;97889.25;;;1.86;100.00
11314;BME280;5712;48.858;9.206;2023-03-15T01:12:54;97884.38;;;1.77;100.00
11314;BME280;5712;48.858;9.206;2023-03-15T01:15:21;97897.63;;;1.71;100.00
11314;BME280;5712;48.858;9.206;2023-03-15T01:17:48;97908.34;;;1.64;100.00
11314;BME280;5712;48.858;9.206;2023-03-15T01:20:15;97901.38;;;1.64;100.00
11314;BME280;5712;48.858;9.206;2023-03-15T01:22:42;97898.22;;;1.56;100.00
11314;BME280;5712;48.858;9.206;2023-03-15T01:25:09;97907.97;;;1.51;100.00
11314;BME280;5712;48.858;9.206;2023-03-15T01:27:35;97906.25;;;1.50;100.00
11314;BME280;5712;48.858;9.206;2023-03-15T01:30:03;97901.38;;;1.41;100.00
11314;BME280;5712;48.858;9.206;2023-03-15T01:32:30;97908.47;;;1.38;100.00
11314;BME280;5712;48.858;9.206;2023-03-15T01:34:57;97901.50;;;1.38;100.00
11314;BME280;5712;48.858;9.206;2023-03-15T01:37:24;97905.06;;;1.36;100.00
11314;BME280;5712;48.858;9.206;2023-03-15T01:39:51;97913.84;;;1.33;100.00
11314;BME280;5712;48.858;9.206;2023-03-15T01:42:18;97915.53;;;1.34;100.00
11314;BME280;5712;48.858;9.206;2023-03-15T01:44:50;97911.41;;;1.29;100.00
11314;BME280;5712;48.858;9.206;2023-03-15T01:47:17;97914.97;;;1.26;100.00
11314;BME280;5712;48.858;9.206;2023-03-15T01:49:46;97924.56;;;1.24;100.00
11314;BME280;5712;48.858;9.206;2023-03-15T01:52:18;97925.66;;;1.19;100.00
11314;BME280;5712;48.858;9.206;2023-03-15T01:54:49;97927.47;;;1.17;100.00
11314;BME280;5712;48.858;9.206;2023-03-15T01:57:21;97929.34;;;1.13;100.00
11314;BME280;5712;48.858;9.206;2023-03-15T01:59:52;97928.28;;;1.17;100.00
11314;BME280;5712;48.858;9.206;2023-03-15T02:02:22;97937.91;;;1.15;100.00
11314;BME280;5712;48.858;9.206;2023-03-15T02:04:54;97947.63;;;1.10;100.00
11314;BME280;5712;48.858;9.206;2023-03-15T02:07:25;97944.34;;;1.05;100.00
11314;BME280;5712;48.858;9.206;2023-03-15T02:09:57;97939.03;;;1.08;100.00
11314;BME280;5712;48.858;9.206;2023-03-15T02:12:27;97945.16;;;1.07;100.00
11314;BME280;5712;48.858;9.206;2023-03-15T02:14:57;97951.34;;;1.03;100.00
11314;BME280;5712;48.858;9.206;2023-03-15T02:17:28;97952.34;;;0.99;100.00
11314;BME280;5712;48.858;9.206;2023-03-15T02:20:06;97948.28;;;0.92;100.00
11314;BME280;5712;48.858;9.206;2023-03-15T02:22:44;97956.28;;;0.86;100.00
11314;BME280;5712;48.858;9.206;2023-03-15T02:25:16;97957.31;;;0.82;100.00
11314;BME280;5712;48.858;9.206;2023-03-15T02:27:48;97954.63;;;0.84;100.00
11314;BME280;5712;48.858;9.206;2023-03-15T02:30:16;97962.50;;;0.82;100.00
11314;BME280;5712;48.858;9.206;2023-03-15T02:32:42;97960.16;;;0.75;100.00
11314;BME280;5712;48.858;9.206;2023-03-15T02:35:09;97962.81;;;0.73;100.00
11314;BME280;5712;48.858;9.206;2023-03-15T02:37:35;97966.41;;;0.69;100.00
11314;BME280;5712;48.858;9.206;2023-03-15T02:40:05;97974.19;;;0.69;100.00
11314;BME280;5712;48.858;9.206;2023-03-15T02:42:38;97973.44;;;0.66;100.00
11314;BME280;5712;48.858;9.206;2023-03-15T02:45:07;97982.31;;;0.60;100.00
11314;BME280;5712;48.858;9.206;2023-03-15T02:47:33;97995.31;;;0.60;100.00
11314;BME280;5712;48.858;9.206;2023-03-15T02:50:00;97989.41;;;0.55;100.00
11314;BME280;5712;48.858;9.206;2023-03-15T02:52:27;98001.56;;;0.55;100.00
11314;BME280;5712;48.858;9.206;2023-03-15T02:54:53;98007.56;;;0.57;100.00
11314;BME280;5712;48.858;9.206;2023-03-15T02:57:20;97992.88;;;0.56;100.00
11314;BME280;5712;48.858;9.206;2023-03-15T02:59:46;98007.59;;;0.55;100.00
11314;BME280;5712;48.858;9.206;2023-03-15T03:02:16;98017.06;;;0.58;100.00
11314;BME280;5712;48.858;9.206;2023-03-15T03:04:43;98025.75;;;0.57;100.00
11314;BME280;5712;48.858;9.206;2023-03-15T03:07:09;98027.47;;;0.58;100.00
11314;BME280;5712;48.858;9.206;2023-03-15T03:09:36;98028.38;;;0.57;100.00
11314;BME280;5712;48.858;9.206;2023-03-15T03:12:03;98031.69;;;0.62;100.00
11314;BME280;5712;48.858;9.206;2023-03-15T03:14:29;98036.75;;;0.65;100.00
11314;BME280;5712;48.858;9.206;2023-03-15T03:16:56;98047.91;;;0.68;100.00
11314;BME280;5712;48.858;9.206;2023-03-15T03:19:24;98047.00;;;0.69;100.00
11314;BME280;5712;48.858;9.206;2023-03-15T03:21:50;98053.22;;;0.65;100.00
11314;BME280;5712;48.858;9.206;2023-03-15T03:24:17;98056.94;;;0.58;100.00
11314;BME280;5712;48.858;9.206;2023-03-15T03:26:44;98062.13;;;0.58;100.00
11314;BME280;5712;48.858;9.206;2023-03-15T03:29:11;98068.31;;;0.54;100.00
11314;BME280;5712;48.858;9.206;2023-03-15T03:31:41;98072.59;;;0.55;100.00
11314;BME280;5712;48.858;9.206;2023-03-15T03:34:07;98074.31;;;0.56;100.00
11314;BME280;5712;48.858;9.206;2023-03-15T03:36:36;98075.25;;;0.54;100.00
11314;BME280;5712;48.858;9.206;2023-03-15T03:39:03;98086.59;;;0.51;100.00
11314;BME280;5712;48.858;9.206;2023-03-15T03:41:29;98083.22;;;0.48;100.00
11314;BME280;5712;48.858;9.206;2023-03-15T03:43:56;98095.28;;;0.50;100.00
11314;BME280;5712;48.858;9.206;2023-03-15T03:46:22;98096.22;;;0.48;100.00
11314;BME280;5712;48.858;9.206;2023-03-15T03:48:49;98098.91;;;0.46;100.00
11314;BME280;5712;48.858;9.206;2023-03-15T03:51:15;98100.66;;;0.44;100.00
11314;BME280;5712;48.858;9.206;2023-03-15T03:53:43;98110.25;;;0.44;100.00
11314;BME280;5712;48.858;9.206;2023-03-15T03:56:10;98104.31;;;0.39;100.00
11314;BME280;5712;48.858;9.206;2023-03-15T03:58:36;98116.53;;;0.37;100.00
11314;BME280;5712;48.858;9.206;2023-03-15T04:01:03;98118.53;;;0.27;100.00
11314;BME280;5712;48.858;9.206;2023-03-15T04:03:30;98121.34;;;0.20;100.00
11314;BME280;5712;48.858;9.206;2023-03-15T04:05:57;98129.34;;;0.12;100.00
11314;BME280;5712;48.858;9.206;2023-03-15T04:08:25;98133.69;;;0.12;100.00
11314;BME280;5712;48.858;9.206;2023-03-15T04:10:54;98127.72;;;0.08;100.00
11314;BME280;5712;48.858;9.206;2023-03-15T04:13:22;98129.47;;;0.09;100.00
11314;BME280;5712;48.858;9.206;2023-03-15T04:15:49;98138.09;;;0.10;100.00
11314;BME280;5712;48.858;9.206;2023-03-15T04:18:16;98143.97;;;0.16;100.00
11314;BME280;5712;48.858;9.206;2023-03-15T04:20:43;98143.97;;;0.16;100.00
11314;BME280;5712;48.858;9.206;2023-03-15T04:23:11;98150.13;;;0.12;100.00
11314;BME280;5712;48.858;9.206;2023-03-15T04:25:38;98145.72;;;0.16;100.00
11314;BME280;5712;48.858;9.206;2023-03-15T04:28:05;98151.78;;;0.16;100.00
11314;BME280;5712;48.858;9.206;2023-03-15T04:30:35;98150.84;;;0.19;100.00
11314;BME280;5712;48.858;9.206;2023-03-15T04:33:02;98156.97;;;0.16;100.00
11314;BME280;5712;48.858;9.206;2023-03-15T04:35:31;98154.41;;;0.15;100.00
11314;BME280;5712;48.858;9.206;2023-03-15T04:37:57;98151.00;;;0.13;100.00
11314;BME280;5712;48.858;9.206;2023-03-15T04:40:24;98156.88;;;0.19;100.00
11314;BME280;5712;48.858;9.206;2023-03-15T04:42:52;98158.50;;;0.23;100.00
11314;BME280;5712;48.858;9.206;2023-03-15T04:45:21;98161.16;;;0.20;100.00
11314;BME280;5712;48.858;9.206;2023-03-15T04:47:48;98168.78;;;0.26;100.00
11314;BME280;5712;48.858;9.206;2023-03-15T04:50:15;98170.50;;;0.27;100.00
11314;BME280;5712;48.858;9.206;2023-03-15T04:52:42;98161.88;;;0.25;100.00
11314;BME280;5712;48.858;9.206;2023-03-15T04:55:09;98162.78;;;0.24;100.00
11314;BME280;5712;48.858;9.206;2023-03-15T04:57:35;98160.81;;;0.32;100.00
11314;BME280;5712;48.858;9.206;2023-03-15T05:00:03;98163.53;;;0.29;100.00
11314;BME280;5712;48.858;9.206;2023-03-15T05:02:33;98161.88;;;0.25;100.00
11314;BME280;5712;48.858;9.206;2023-03-15T05:05:00;98163.69;;;0.23;100.00
11314;BME280;5712;48.858;9.206;2023-03-15T05:07:26;98155.94;;;0.22;100.00
11314;BME280;5712;48.858;9.206;2023-03-15T05:09:53;98151.66;;;0.19;100.00
11314;BME280;5712;48.858;9.206;2023-03-15T05:12:19;98158.84;;;0.11;100.00
11314;BME280;5712;48.858;9.206;2023-03-15T05:14:45;98150.25;;;0.09;100.00
11314;BME280;5712;48.858;9.206;2023-03-15T05:17:12;98157.13;;;0.10;100.00
11314;BME280;5712;48.858;9.206;2023-03-15T05:19:40;98158.84;;;0.11;100.00
11314;BME280;5712;48.858;9.206;2023-03-15T05:22:07;98158.84;;;0.11;100.00
11314;BME280;5712;48.858;9.206;2023-03-15T05:24:34;98164.09;;;0.08;100.00
11314;BME280;5712;48.858;9.206;2023-03-15T05:27:00;98165.09;;;0.04;100.00
11314;BME280;5712;48.858;9.206;2023-03-15T05:29:29;98161.63;;;0.04;100.00
11314;BME280;5712;48.858;9.206;2023-03-15T05:31:55;98160.69;;;0.06;100.00
11314;BME280;5712;48.858;9.206;2023-03-15T05:34:22;98166.00;;;0.03;100.00
11314;BME280;5712;48.858;9.206;2023-03-15T05:36:50;98163.56;;;-0.03;100.00
11314;BME280;5712;48.858;9.206;2023-03-15T05:39:16;98161.06;;;-0.07;100.00
11314;BME280;5712;48.858;9.206;2023-03-15T05:41:43;98179.31;;;-0.08;100.00
11314;BME280;5712;48.858;9.206;2023-03-15T05:44:09;98172.34;;;-0.08;100.00
11314;BME280;5712;48.858;9.206;2023-03-15T05:46:36;98174.16;;;-0.10;100.00
11314;BME280;5712;48.858;9.206;2023-03-15T05:49:02;98174.03;;;-0.06;100.00
11314;BME280;5712;48.858;9.206;2023-03-15T05:51:29;98174.75;;;-0.01;100.00
11314;BME280;5712;48.858;9.206;2023-03-15T05:53:57;98177.91;;;0.10;100.00
11314;BME280;5712;48.858;9.206;2023-03-15T05:56:23;98176.13;;;0.12;100.00
11314;BME280;5712;48.858;9.206;2023-03-15T05:58:50;98181.41;;;0.09;100.00
11314;BME280;5712;48.858;9.206;2023-03-15T06:01:17;98175.41;;;0.06;100.00
11314;BME280;5712;48.858;9.206;2023-03-15T06:03:43;98186.78;;;0.03;100.00
11314;BME280;5712;48.858;9.206;2023-03-15T06:06:09;98179.84;;;0.02;100.00
11314;BME280;5712;48.858;9.206;2023-03-15T06:08:36;98183.16;;;0.09;100.00
11314;BME280;5712;48.858;9.206;2023-03-15T06:11:04;98184.97;;;0.05;100.00
11314;BME280;5712;48.858;9.206;2023-03-15T06:13:30;98188.31;;;0.10;100.00
11314;BME280;5712;48.858;9.206;2023-03-15T06:15:57;98195.38;;;0.05;100.00
11314;BME280;5712;48.858;9.206;2023-03-15T06:18:23;98199.66;;;0.06;100.00
11314;BME280;5712;48.858;9.206;2023-03-15T06:20:50;98199.50;;;0.12;100.00
11314;BME280;5712;48.858;9.206;2023-03-15T06:23:16;98199.31;;;0.20;100.00
11314;BME280;5712;48.858;9.206;2023-03-15T06:25:43;98204.97;;;0.34;100.00
11314;BME280;5712;48.858;9.206;2023-03-15T06:28:12;98204.94;;;0.35;100.00
11314;BME280;5712;48.858;9.206;2023-03-15T06:30:39;98205.69;;;0.39;100.00
11314;BME280;5712;48.858;9.206;2023-03-15T06:33:08;98213.41;;;0.42;100.00
11314;BME280;5712;48.858;9.206;2023-03-15T06:35:36;98216.59;;;0.51;100.00
11314;BME280;5712;48.858;9.206;2023-03-15T06:38:02;98221.72;;;0.54;100.00
11314;BME280;5712;48.858;9.206;2023-03-15T06:40:29;98218.03;;;0.61;100.00
11314;BME280;5712;48.858;9.206;2023-03-15T06:42:55;98209.16;;;0.68;100.00
11314;BME280;5712;48.858;9.206;2023-03-15T06:45:23;98214.19;;;0.74;100.00
11314;BME280;5712;48.858;9.206;2023-03-15T06:47:50;98222.53;;;0.85;100.00
11314;BME280;5712;48.858;9.206;2023-03-15T06:50:16;98231.06;;;0.90;100.00
11314;BME280;5712;48.858;9.206;2023-03-15T06:52:43;98224.88;;;0.94;100.00
11314;BME280;5712;48.858;9.206;2023-03-15T06:55:09;98216.69;;;1.06;100.00
11314;BME280;5712;48.858;9.206;2023-03-15T06:57:41;98220.84;;;1.12;100.00
11314;BME280;5712;48.858;9.206;2023-03-15T07:00:08;98219.75;;;1.19;100.00
11314;BME280;5712;48.858;9.206;2023-03-15T07:02:37;98221.31;;;1.24;100.00
11314;BME280;5712;48.858;9.206;2023-03-15T07:05:04;98219.50;;;1.28;100.00
11314;BME280;5712;48.858;9.206;2023-03-15T07:07:31;98220.88;;;1.38;100.00
11314;BME280;5712;48.858;9.206;2023-03-15T07:09:57;98219.50;;;1.54;100.00
11314;BME280;5712;48.858;9.206;2023-03-15T07:12:24;98221.97;;;1.58;100.00
11314;BME280;5712;48.858;9.206;2023-03-15T07:14:51;98213.16;;;1.62;100.00
11314;BME280;5712;48.858;9.206;2023-03-15T07:17:17;98216.34;;;1.70;100.00
11314;BME280;5712;48.858;9.206;2023-03-15T07:19:45;98218.72;;;1.78;100.00
11314;BME280;5712;48.858;9.206;2023-03-15T07:22:12;98223.59;;;1.87;100.00
11314;BME280;5712;48.858;9.206;2023-03-15T07:24:38;98220.75;;;1.94;100.00
11314;BME280;5712;48.858;9.206;2023-03-15T07:27:05;98222.25;;;2.01;100.00
11314;BME280;5712;48.858;9.206;2023-03-15T07:29:31;98216.81;;;2.07;100.00
11314;BME280;5712;48.858;9.206;2023-03-15T07:31:57;98224.25;;;2.18;100.00
11314;BME280;5712;48.858;9.206;2023-03-15T07:34:25;98221.41;;;2.25;100.00
11314;BME280;5712;48.858;9.206;2023-03-15T07:36:53;98221.97;;;2.33;100.00
11314;BME280;5712;48.858;9.206;2023-03-15T07:39:19;98224.78;;;2.52;100.00
11314;BME280;5712;48.858;9.206;2023-03-15T07:41:47;98225.41;;;2.58;100.00
11314;BME280;5712;48.858;9.206;2023-03-15T07:44:14;98231.31;;;2.63;100.00
11314;BME280;5712;48.858;9.206;2023-03-15T07:46:40;98239.72;;;2.71;100.00
11314;BME280;5712;48.858;9.206;2023-03-15T07:49:07;98237.56;;;2.82;100.00
11314;BME280;5712;48.858;9.206;2023-03-15T07:51:33;98234.41;;;2.97;98.50
11314;BME280;5712;48.858;9.206;2023-03-15T07:54:01;98223.59;;;3.06;95.56
11314;BME280;5712;48.858;9.206;2023-03-15T07:56:27;98214.25;;;3.01;93.76
11314;BME280;5712;48.858;9.206;2023-03-15T07:58:54;98216.81;;;3.02;92.06
11314;BME280;5712;48.858;9.206;2023-03-15T08:01:20;98205.41;;;3.05;92.50
11314;BME280;5712;48.858;9.206;2023-03-15T08:03:47;98213.03;;;3.09;92.21
11314;BME280;5712;48.858;9.206;2023-03-15T08:06:13;98215.28;;;3.18;88.88
11314;BME280;5712;48.858;9.206;2023-03-15T08:08:40;98214.75;;;3.32;87.57
11314;BME280;5712;48.858;9.206;2023-03-15T08:11:08;98210.94;;;3.40;86.64
11314;BME280;5712;48.858;9.206;2023-03-15T08:13:34;98201.16;;;3.45;85.88
11314;BME280;5712;48.858;9.206;2023-03-15T08:16:01;98218.97;;;3.57;87.26
11314;BME280;5712;48.858;9.206;2023-03-15T08:18:27;98208.78;;;3.71;85.72
11314;BME280;5712;48.858;9.206;2023-03-15T08:20:54;98217.31;;;3.76;85.51
11314;BME280;5712;48.858;9.206;2023-03-15T08:23:21;98206.44;;;3.85;84.77
11314;BME280;5712;48.858;9.206;2023-03-15T08:25:48;98206.91;;;3.95;83.78
11314;BME280;5712;48.858;9.206;2023-03-15T08:28:16;98211.38;;;4.13;83.40
11314;BME280;5712;48.858;9.206;2023-03-15T08:30:42;98217.22;;;4.19;83.59
11314;BME280;5712;48.858;9.206;2023-03-15T08:33:09;98209.88;;;4.27;81.12
11314;BME280;5712;48.858;9.206;2023-03-15T08:35:36;98210.97;;;4.42;81.08
11314;BME280;5712;48.858;9.206;2023-03-15T08:38:03;98210.91;;;4.43;79.80
11314;BME280;5712;48.858;9.206;2023-03-15T08:40:30;98206.97;;;4.53;77.84
11314;BME280;5712;48.858;9.206;2023-03-15T08:42:56;98201.19;;;4.65;75.26
11314;BME280;5712;48.858;9.206;2023-03-15T08:45:25;98214.38;;;4.82;77.05
11314;BME280;5712;48.858;9.206;2023-03-15T08:47:53;98217.94;;;5.00;76.94
11314;BME280;5712;48.858;9.206;2023-03-15T08:50:20;98222.53;;;5.32;77.03
11314;BME280;5712;48.858;9.206;2023-03-15T08:52:46;98210.38;;;5.66;74.63
11314;BME280;5712;48.858;9.206;2023-03-15T08:55:13;98199.53;;;5.91;71.51
11314;BME280;5712;48.858;9.206;2023-03-15T08:57:40;98177.13;;;6.02;67.15
11314;BME280;5712;48.858;9.206;2023-03-15T09:00:08;98194.94;;;6.13;68.33
11314;BME280;5712;48.858;9.206;2023-03-15T09:02:41;98196.00;;;6.26;68.24
11314;BME280;5712;48.858;9.206;2023-03-15T09:05:08;98193.31;;;6.27;66.07
11314;BME280;5712;48.858;9.206;2023-03-15T09:07:36;98191.56;;;6.28;66.54
11314;BME280;5712;48.858;9.206;2023-03-15T09:10:03;98198.25;;;6.33;66.44
11314;BME280;5712;48.858;9.206;2023-03-15T09:12:29;98183.88;;;6.40;63.50
11314;BME280;5712;48.858;9.206;2023-03-15T09:14:56;98197.28;;;6.51;64.80
11314;BME280;5712;48.858;9.206;2023-03-15T09:17:23;98191.34;;;6.65;64.59
11314;BME280;5712;48.858;9.206;2023-03-15T09:19:51;98182.47;;;6.50;62.18
11314;BME280;5712;48.858;9.206;2023-03-15T09:22:17;98205.72;;;6.73;64.24
11314;BME280;5712;48.858;9.206;2023-03-15T09:24:44;98209.75;;;6.80;64.56
11314;BME280;5712;48.858;9.206;2023-03-15T09:27:10;98212.56;;;6.93;65.08
11314;BME280;5712;48.858;9.206;2023-03-15T09:29:37;98186.78;;;6.51;60.45
11314;BME280;5712;48.858;9.206;2023-03-15T09:32:04;98198.22;;;6.50;62.49
11314;BME280;5712;48.858;9.206;2023-03-15T09:34:31;98202.88;;;6.45;61.56
11314;BME280;5712;48.858;9.206;2023-03-15T09:36:58;98196.75;;;6.45;60.98
11314;BME280;5712;48.858;9.206;2023-03-15T09:39:25;98210.75;;;6.45;62.45
11314;BME280;5712;48.858;9.206;2023-03-15T09:41:54;98216.06;;;6.61;62.21
11314;BME280;5712;48.858;9.206;2023-03-15T09:44:38;98216.25;;;6.73;62.59
11314;BME280;5712;48.858;9.206;2023-03-15T09:47:19;98171.25;;;6.79;58.36
11314;BME280;5712;48.858;9.206;2023-03-15T09:49:55;98188.91;;;6.77;58.58
11314;BME280;5712;48.858;9.206;2023-03-15T09:52:30;98183.47;;;6.65;58.24
11314;BME280;5712;48.858;9.206;2023-03-15T09:55:00;98187.53;;;6.70;58.79
11314;BME280;5712;48.858;9.206;2023-03-15T09:57:35;98212.28;;;6.82;60.43
11314;BME280;5712;48.858;9.206;2023-03-15T10:00:05;98206.47;;;6.92;59.79
11314;BME280;5712;48.858;9.206;2023-03-15T10:02:38;98210.47;;;6.99;60.71
11314;BME280;5712;48.858;9.206;2023-03-15T10:05:11;98196.22;;;7.03;58.70
11314;BME280;5712;48.858;9.206;2023-03-15T10:07:42;98198.63;;;6.75;59.19
11314;BME280;5712;48.858;9.206;2023-03-15T10:10:15;98203.06;;;6.90;59.49
11314;BME280;5712;48.858;9.206;2023-03-15T10:12:45;98197.50;;;7.12;58.64
11314;BME280;5712;48.858;9.206;2023-03-15T10:15:25;98201.53;;;7.34;59.04
11314;BME280;5712;48.858;9.206;2023-03-15T10:18:06;98213.88;;;7.63;60.77
11314;BME280;5712;48.858;9.206;2023-03-15T10:20:40;98209.19;;;7.83;60.02
11314;BME280;5712;48.858;9.206;2023-03-15T10:23:13;98195.72;;;7.74;58.24
11314;BME280;5712;48.858;9.206;2023-03-15T10:25:42;98194.19;;;7.70;58.67
11314;BME280;5712;48.858;9.206;2023-03-15T10:28:12;98205.75;;;7.67;58.72
11314;BME280;5712;48.858;9.206;2023-03-15T10:30:45;98195.91;;;7.71;58.17
11314;BME280;5712;48.858;9.206;2023-03-15T10:33:15;98200.03;;;7.75;58.95
11314;BME280;5712;48.858;9.206;2023-03-15T10:35:44;98208.59;;;7.78;59.52
11314;BME280;5712;48.858;9.206;2023-03-15T10:38:15;98188.41;;;7.79;57.53
11314;BME280;5712;48.858;9.206;2023-03-15T10:40:44;98199.56;;;7.98;59.13
11314;BME280;5712;48.858;9.206;2023-03-15T10:43:12;98198.25;;;8.20;58.68
11314;BME280;5712;48.858;9.206;2023-03-15T10:45:45;98181.81;;;8.31;56.19
11314;BME280;5712;48.858;9.206;2023-03-15T10:48:12;98178.66;;;8.54;56.23
11314;BME280;5712;48.858;9.206;2023-03-15T10:50:39;98167.97;;;8.71;55.89
11314;BME280;5712;48.858;9.206;2023-03-15T10:53:09;98177.00;;;8.81;55.60
11314;BME280;5712;48.858;9.206;2023-03-15T10:55:42;98183.38;;;8.91;56.02
11314;BME280;5712;48.858;9.206;2023-03-15T10:58:20;98175.47;;;8.91;55.85
11314;BME280;5712;48.858;9.206;2023-03-15T11:00:49;98168.81;;;8.85;54.80
11314;BME280;5712;48.858;9.206;2023-03-15T11:03:18;98172.28;;;8.72;54.55
11314;BME280;5712;48.858;9.206;2023-03-15T11:05:46;98171.94;;;8.34;54.89
11314;BME280;5712;48.858;9.206;2023-03-15T11:08:14;98182.56;;;8.03;56.89
11314;BME280;5712;48.858;9.206;2023-03-15T11:10:43;98192.63;;;7.97;57.54
11314;BME280;5712;48.858;9.206;2023-03-15T11:13:12;98199.69;;;7.81;57.58
11314;BME280;5712;48.858;9.206;2023-03-15T11:15:47;98201.50;;;7.65;57.94
11314;BME280;5712;48.858;9.206;2023-03-15T11:18:16;98190.56;;;7.57;58.23
11314;BME280;5712;48.858;9.206;2023-03-15T11:20:44;98184.53;;;7.55;57.14
11314;BME280;5712;48.858;9.206;2023-03-15T11:23:14;98139.78;;;7.41;52.60
11314;BME280;5712;48.858;9.206;2023-03-15T11:25:40;98157.59;;;7.36;53.94
11314;BME280;5712;48.858;9.206;2023-03-15T11:28:16;98123.22;;;7.23;52.02
11314;BME280;5712;48.858;9.206;2023-03-15T11:30:43;98124.84;;;7.26;51.73
11314;BME280;5712;48.858;9.206;2023-03-15T11:33:26;98120.03;;;7.34;51.54
11314;BME280;5712;48.858;9.206;2023-03-15T11:35:59;98156.03;;;7.32;53.51
11314;BME280;5712;48.858;9.206;2023-03-15T11:38:30;98131.78;;;7.27;52.24
11314;BME280;5712;48.858;9.206;2023-03-15T11:41:01;98130.03;;;7.12;52.06
11314;BME280;5712;48.858;9.206;2023-03-15T11:43:40;98138.41;;;7.03;52.69
11314;BME280;5712;48.858;9.206;2023-03-15T11:46:16;98132.59;;;6.98;52.92
11314;BME280;5712;48.858;9.206;2023-03-15T11:48:50;98144.50;;;6.88;53.48
11314;BME280;5712;48.858;9.206;2023-03-15T11:51:18;98153.66;;;6.81;54.42
11314;BME280;5712;48.858;9.206;2023-03-15T11:53:48;98176.72;;;6.92;55.62
11314;BME280;5712;48.858;9.206;2023-03-15T11:56:22;98191.13;;;6.85;56.64
11314;BME280;5712;48.858;9.206;2023-03-15T11:59:04;98190.25;;;6.84;57.14
11314;BME280;5712;48.858;9.206;2023-03-15T12:01:33;98189.44;;;6.84;57.18
11314;BME280;5712;48.858;9.206;2023-03-15T12:10:32;98227.41;;;7.09;59.35
11314;BME280;5712;48.858;9.206;2023-03-15T12:13:06;98223.34;;;7.04;59.32
11314;BME280;5712;48.858;9.206;2023-03-15T12:15:46;98206.22;;;6.97;58.61
11314;BME280;5712;48.858;9.206;2023-03-15T12:18:16;98223.00;;;6.94;60.02
11314;BME280;5712;48.858;9.206;2023-03-15T12:20:49;98239.06;;;7.05;61.14
11314;BME280;5712;48.858;9.206;2023-03-15T12:23:27;98230.06;;;7.09;59.76
11314;BME280;5712;48.858;9.206;2023-03-15T12:25:57;98229.91;;;7.12;59.24
11314;BME280;5712;48.858;9.206;2023-03-15T12:28:29;98216.66;;;6.98;59.59
11314;BME280;5712;48.858;9.206;2023-03-15T12:31:03;98214.38;;;7.08;59.38
11314;BME280;5712;48.858;9.206;2023-03-15T12:33:45;98214.19;;;6.95;59.74
11314;BME280;5712;48.858;9.206;2023-03-15T12:36:19;98230.63;;;6.99;59.67
11314;BME280;5712;48.858;9.206;2023-03-15T12:38:58;98266.25;;;6.55;62.79
11314;BME280;5712;48.858;9.206;2023-03-15T12:41:36;98297.53;;;6.25;69.02
11314;BME280;5712;48.858;9.206;2023-03-15T12:44:25;98305.78;;;6.18;72.37
11314;BME280;5712;48.858;9.206;2023-03-15T12:46:55;98323.47;;;5.96;76.24
11314;BME280;5712;48.858;9.206;2023-03-15T12:49:34;98327.16;;;5.73;78.86
11314;BME280;5712;48.858;9.206;2023-03-15T12:52:02;98328.19;;;5.69;80.30
11314;BME280;5712;48.858;9.206;2023-03-15T12:54:33;98332.69;;;5.67;81.08
11314;BME280;5712;48.858;9.206;2023-03-15T12:57:03;98333.97;;;5.77;81.29
11314;BME280;5712;48.858;9.206;2023-03-15T12:59:35;98342.63;;;5.61;83.29
11314;BME280;5712;48.858;9.206;2023-03-15T13:02:21;98340.63;;;5.47;83.94
11314;BME280;5712;48.858;9.206;2023-03-15T13:04:57;98335.38;;;5.47;83.02
11314;BME280;5712;48.858;9.206;2023-03-15T13:07:31;98345.00;;;5.47;83.10
11314;BME280;5712;48.858;9.206;2023-03-15T13:10:29;98341.66;;;5.25;83.43
11314;BME280;5712;48.858;9.206;2023-03-15T13:13:00;98349.09;;;5.15;85.14
11314;BME280;5712;48.858;9.206;2023-03-15T13:15:33;98336.16;;;5.11;87.35
11314;BME280;5712;48.858;9.206;2023-03-15T13:18:10;98333.47;;;5.12;88.48
11314;BME280;5712;48.858;9.206;2023-03-15T13:20:49;98335.19;;;5.13;89.92
11314;BME280;5712;48.858;9.206;2023-03-15T13:23:19;98316.72;;;5.16;88.17
11314;BME280;5712;48.858;9.206;2023-03-15T13:26:00;98325.84;;;5.26;88.42
11314;BME280;5712;48.858;9.206;2023-03-15T13:28:32;98313.28;;;5.34;86.19
11314;BME280;5712;48.858;9.206;2023-03-15T13:31:09;98310.28;;;5.42;84.37
11314;BME280;5712;48.858;9.206;2023-03-15T13:33:38;98314.41;;;5.47;84.93